EZY36MA EGGD-EGNS
Flight info
| Callsign | EZY36MA |
|---|---|
| Flight time | 0h 41m |
| Altitude | 22000 |
| Route | BCN P69 EXBUM/N0359F240 P69 DIZIM N864 WAL M146 LUSOD DCT IOM |
| Aircraft | A319/M-SDE3FGHIRWY/LB1 |
Departure
| Time | 2026-05-04 12:35 |
|---|---|
| Airport | Bristol Airport (EGGD) |
Arrival
| Time | 2026-05-04 13:16 |
|---|---|
| Airport | Isle of Man Airport (EGNS) |
| Time | Latitude | Longitude | Altitude | Speed | Heading |
|---|---|---|---|---|---|
| 2026-05-04 12:18 | 51.38571 | -2.70708 | 0 ft | 0 kts | 268° |
| 2026-05-04 12:27 | 51.38571 | -2.70706 | 607 ft | 1 kts | 268° |
| 2026-05-04 12:28 | 51.38573 | -2.70679 | 623 ft | 3 kts | 256° |
| 2026-05-04 12:28 | 51.38580 | -2.70651 | 617 ft | 3 kts | 219° |
| 2026-05-04 12:28 | 51.38592 | -2.70641 | 617 ft | 2 kts | 177° |
| 2026-05-04 12:28 | 51.38593 | -2.70640 | 617 ft | 0 kts | 176° |
| 2026-05-04 12:30 | 51.38592 | -2.70640 | 617 ft | 3 kts | 176° |
| 2026-05-04 12:30 | 51.38548 | -2.70636 | 612 ft | 7 kts | 176° |
| 2026-05-04 12:31 | 51.38494 | -2.70636 | 609 ft | 8 kts | 195° |
| 2026-05-04 12:31 | 51.38471 | -2.70737 | 611 ft | 16 kts | 266° |
| 2026-05-04 12:31 | 51.38463 | -2.70946 | 614 ft | 19 kts | 266° |
| 2026-05-04 12:31 | 51.38455 | -2.71153 | 617 ft | 18 kts | 267° |
| 2026-05-04 12:32 | 51.38448 | -2.71354 | 616 ft | 20 kts | 266° |
| 2026-05-04 12:32 | 51.38429 | -2.71894 | 606 ft | 26 kts | 271° |
| 2026-05-04 12:32 | 51.38425 | -2.72185 | 622 ft | 25 kts | 266° |
| 2026-05-04 12:33 | 51.38414 | -2.72457 | 615 ft | 24 kts | 266° |
| 2026-05-04 12:33 | 51.38403 | -2.72729 | 615 ft | 25 kts | 266° |
| 2026-05-04 12:33 | 51.38392 | -2.73013 | 615 ft | 26 kts | 266° |
| 2026-05-04 12:33 | 51.38364 | -2.73297 | 619 ft | 25 kts | 233° |
| 2026-05-04 12:34 | 51.38236 | -2.73316 | 633 ft | 14 kts | 146° |
| 2026-05-04 12:34 | 51.38217 | -2.73184 | 632 ft | 15 kts | 87° |
| 2026-05-04 12:34 | 51.38240 | -2.72614 | 630 ft | 92 kts | 86° |
| 2026-05-04 12:34 | 51.38296 | -2.71204 | 679 ft | 151 kts | 84° |
| 2026-05-04 12:35 | 51.38363 | -2.69542 | 1474 ft | 148 kts | 85° |
| 2026-05-04 12:35 | 51.38423 | -2.67879 | 2206 ft | 157 kts | 86° |
| 2026-05-04 12:35 | 51.38485 | -2.66013 | 2682 ft | 181 kts | 87° |
| 2026-05-04 12:35 | 51.38553 | -2.63850 | 3178 ft | 207 kts | 88° |
| 2026-05-04 12:36 | 51.38611 | -2.61409 | 3792 ft | 232 kts | 88° |
| 2026-05-04 12:36 | 51.38684 | -2.58702 | 4525 ft | 253 kts | 88° |
| 2026-05-04 12:36 | 51.39056 | -2.55892 | 5403 ft | 269 kts | 63° |
| 2026-05-04 12:36 | 51.40366 | -2.53733 | 6443 ft | 278 kts | 31° |
| 2026-05-04 12:37 | 51.42245 | -2.53014 | 7477 ft | 286 kts | 357° |
| 2026-05-04 12:37 | 51.44116 | -2.54047 | 8528 ft | 291 kts | 323° |
| 2026-05-04 12:37 | 51.45448 | -2.56476 | 9632 ft | 293 kts | 299° |
| 2026-05-04 12:37 | 51.46351 | -2.59436 | 10442 ft | 304 kts | 287° |
| 2026-05-04 12:38 | 51.46888 | -2.62834 | 10996 ft | 322 kts | 282° |
| 2026-05-04 12:38 | 51.47624 | -2.66279 | 11840 ft | 331 kts | 293° |
| 2026-05-04 12:38 | 51.48770 | -2.69511 | 12756 ft | 337 kts | 302° |
| 2026-05-04 12:38 | 51.50144 | -2.72596 | 13668 ft | 342 kts | 306° |
| 2026-05-04 12:39 | 51.51602 | -2.75655 | 14479 ft | 347 kts | 306° |
| 2026-05-04 12:39 | 51.53065 | -2.78774 | 15261 ft | 352 kts | 305° |
| 2026-05-04 12:39 | 51.54503 | -2.81979 | 16039 ft | 356 kts | 304° |
| 2026-05-04 12:39 | 51.55919 | -2.85282 | 16828 ft | 361 kts | 303° |
| 2026-05-04 12:40 | 51.57316 | -2.88662 | 17603 ft | 366 kts | 302° |
| 2026-05-04 12:40 | 51.58713 | -2.92110 | 18376 ft | 370 kts | 302° |
| 2026-05-04 12:40 | 51.60122 | -2.95597 | 19054 ft | 374 kts | 302° |
| 2026-05-04 12:40 | 51.61549 | -2.99126 | 19741 ft | 378 kts | 302° |
| 2026-05-04 12:41 | 51.62988 | -3.02687 | 20449 ft | 382 kts | 302° |
| 2026-05-04 12:41 | 51.64445 | -3.06288 | 21161 ft | 386 kts | 302° |
| 2026-05-04 12:41 | 51.65917 | -3.09919 | 21798 ft | 390 kts | 302° |
| 2026-05-04 12:41 | 51.67404 | -3.13583 | 22009 ft | 391 kts | 302° |
| 2026-05-04 12:42 | 51.68865 | -3.17183 | 22048 ft | 376 kts | 302° |
| 2026-05-04 12:42 | 51.70429 | -3.20444 | 22053 ft | 363 kts | 314° |
| 2026-05-04 12:42 | 51.72414 | -3.22923 | 22044 ft | 360 kts | 330° |
| 2026-05-04 12:42 | 51.74716 | -3.24468 | 22047 ft | 359 kts | 346° |
| 2026-05-04 12:43 | 51.77180 | -3.24995 | 22049 ft | 358 kts | 1° |
| 2026-05-04 12:43 | 51.79648 | -3.24570 | 22046 ft | 357 kts | 10° |
| 2026-05-04 12:43 | 51.82101 | -3.23958 | 22043 ft | 357 kts | 10° |
| 2026-05-04 12:43 | 51.84557 | -3.23346 | 22046 ft | 357 kts | 9° |
| 2026-05-04 12:44 | 51.87012 | -3.22741 | 22055 ft | 357 kts | 9° |
| 2026-05-04 12:44 | 51.89466 | -3.22140 | 22050 ft | 356 kts | 9° |
| 2026-05-04 12:44 | 51.91917 | -3.21539 | 22044 ft | 356 kts | 9° |
| 2026-05-04 12:44 | 51.94367 | -3.20934 | 22049 ft | 356 kts | 9° |
| 2026-05-04 12:45 | 51.96818 | -3.20324 | 22047 ft | 356 kts | 9° |
| 2026-05-04 12:45 | 51.99264 | -3.19717 | 22048 ft | 356 kts | 9° |
| 2026-05-04 12:45 | 52.01702 | -3.19108 | 22046 ft | 356 kts | 9° |
| 2026-05-04 12:45 | 52.04162 | -3.18536 | 22049 ft | 356 kts | 5° |
| 2026-05-04 12:46 | 52.06636 | -3.18329 | 22046 ft | 356 kts | 3° |
| 2026-05-04 12:46 | 52.09112 | -3.18149 | 22049 ft | 356 kts | 3° |
| 2026-05-04 12:46 | 52.11587 | -3.17964 | 22050 ft | 356 kts | 3° |
| 2026-05-04 12:46 | 52.14054 | -3.17777 | 22052 ft | 355 kts | 3° |
| 2026-05-04 12:47 | 52.16524 | -3.17586 | 22051 ft | 355 kts | 3° |
| 2026-05-04 12:47 | 52.18992 | -3.17397 | 22054 ft | 355 kts | 3° |
| 2026-05-04 12:47 | 52.21458 | -3.17206 | 22056 ft | 355 kts | 3° |
| 2026-05-04 12:47 | 52.23923 | -3.17013 | 22060 ft | 355 kts | 3° |
| 2026-05-04 12:48 | 52.26387 | -3.16822 | 22057 ft | 354 kts | 3° |
| 2026-05-04 12:48 | 52.28846 | -3.16631 | 22058 ft | 354 kts | 4° |
| 2026-05-04 12:48 | 52.31272 | -3.16441 | 22063 ft | 354 kts | 4° |
| 2026-05-04 12:48 | 52.33727 | -3.16252 | 22060 ft | 353 kts | 4° |
| 2026-05-04 12:49 | 52.36183 | -3.16064 | 22066 ft | 353 kts | 4° |
| 2026-05-04 12:49 | 52.38636 | -3.15876 | 22067 ft | 353 kts | 4° |
| 2026-05-04 12:49 | 52.41083 | -3.15686 | 22063 ft | 352 kts | 4° |
| 2026-05-04 12:49 | 52.43533 | -3.15496 | 22068 ft | 352 kts | 4° |
| 2026-05-04 12:50 | 52.45977 | -3.15308 | 22068 ft | 351 kts | 4° |
| 2026-05-04 12:50 | 52.48416 | -3.15119 | 22069 ft | 351 kts | 4° |
| 2026-05-04 12:50 | 52.50856 | -3.14926 | 22067 ft | 350 kts | 4° |
| 2026-05-04 12:50 | 52.53287 | -3.14732 | 22074 ft | 350 kts | 4° |
| 2026-05-04 12:51 | 52.55715 | -3.14538 | 22075 ft | 349 kts | 4° |
| 2026-05-04 12:51 | 52.58143 | -3.14347 | 22076 ft | 349 kts | 4° |
| 2026-05-04 12:51 | 52.60566 | -3.14157 | 22075 ft | 348 kts | 4° |
| 2026-05-04 12:51 | 52.62985 | -3.13965 | 22080 ft | 348 kts | 4° |
| 2026-05-04 12:52 | 52.65401 | -3.13775 | 22077 ft | 347 kts | 4° |
| 2026-05-04 12:52 | 52.67816 | -3.13584 | 22081 ft | 347 kts | 4° |
| 2026-05-04 12:52 | 52.70225 | -3.13393 | 22080 ft | 347 kts | 4° |
| 2026-05-04 12:52 | 52.72641 | -3.13467 | 22079 ft | 348 kts | 355° |
| 2026-05-04 12:53 | 52.75038 | -3.14033 | 22081 ft | 348 kts | 353° |
| 2026-05-04 12:53 | 52.77435 | -3.14610 | 22079 ft | 348 kts | 353° |
| 2026-05-04 12:53 | 52.79827 | -3.15177 | 22078 ft | 348 kts | 354° |
| 2026-05-04 12:53 | 52.82222 | -3.15734 | 22078 ft | 347 kts | 354° |
| 2026-05-04 12:54 | 52.84614 | -3.16290 | 22080 ft | 347 kts | 354° |
| 2026-05-04 12:54 | 52.87004 | -3.16850 | 22079 ft | 347 kts | 354° |
| 2026-05-04 12:54 | 52.89396 | -3.17307 | 22076 ft | 345 kts | 0° |
| 2026-05-04 12:54 | 52.91784 | -3.17195 | 22078 ft | 344 kts | 5° |
| 2026-05-04 12:55 | 52.94174 | -3.17005 | 22079 ft | 343 kts | 5° |
| 2026-05-04 12:55 | 52.96561 | -3.16820 | 22079 ft | 343 kts | 5° |
| 2026-05-04 12:55 | 52.98947 | -3.16637 | 22080 ft | 343 kts | 5° |
| 2026-05-04 12:55 | 53.01329 | -3.16454 | 22081 ft | 343 kts | 5° |
| 2026-05-04 12:56 | 53.03711 | -3.16266 | 22080 ft | 343 kts | 5° |
| 2026-05-04 12:56 | 53.06097 | -3.16076 | 22082 ft | 343 kts | 5° |
| 2026-05-04 12:56 | 53.08472 | -3.15886 | 22085 ft | 342 kts | 5° |
| 2026-05-04 12:56 | 53.10854 | -3.15697 | 22086 ft | 342 kts | 5° |
| 2026-05-04 12:57 | 53.13230 | -3.15506 | 22086 ft | 342 kts | 5° |
| 2026-05-04 12:57 | 53.15605 | -3.15318 | 22091 ft | 342 kts | 5° |
| 2026-05-04 12:57 | 53.17980 | -3.15132 | 22089 ft | 342 kts | 5° |
| 2026-05-04 12:57 | 53.20353 | -3.14946 | 22086 ft | 341 kts | 5° |
| 2026-05-04 12:58 | 53.22724 | -3.14760 | 22082 ft | 341 kts | 5° |
| 2026-05-04 12:58 | 53.25097 | -3.14570 | 22085 ft | 341 kts | 5° |
| 2026-05-04 12:58 | 53.27469 | -3.14375 | 22082 ft | 341 kts | 5° |
| 2026-05-04 12:58 | 53.29839 | -3.14180 | 22079 ft | 341 kts | 5° |
| 2026-05-04 12:59 | 53.32212 | -3.13989 | 22076 ft | 341 kts | 5° |
| 2026-05-04 12:59 | 53.34583 | -3.13801 | 22076 ft | 341 kts | 4° |
| 2026-05-04 12:59 | 53.36953 | -3.14046 | 22073 ft | 344 kts | 351° |
| 2026-05-04 12:59 | 53.39240 | -3.15223 | 22073 ft | 346 kts | 338° |
| 2026-05-04 13:00 | 53.41315 | -3.17281 | 22071 ft | 349 kts | 324° |
| 2026-05-04 13:00 | 53.43072 | -3.20023 | 22071 ft | 350 kts | 316° |
| 2026-05-04 13:00 | 53.44783 | -3.22939 | 22067 ft | 350 kts | 316° |
| 2026-05-04 13:00 | 53.46491 | -3.25857 | 22045 ft | 351 kts | 316° |
| 2026-05-04 13:01 | 53.48227 | -3.28823 | 21776 ft | 351 kts | 316° |
| 2026-05-04 13:01 | 53.49935 | -3.31737 | 21513 ft | 349 kts | 316° |
| 2026-05-04 13:01 | 53.51633 | -3.34642 | 21251 ft | 347 kts | 316° |
| 2026-05-04 13:01 | 53.53318 | -3.37538 | 20996 ft | 346 kts | 315° |
| 2026-05-04 13:02 | 53.54973 | -3.40384 | 20740 ft | 344 kts | 315° |
| 2026-05-04 13:02 | 53.56663 | -3.43287 | 20486 ft | 341 kts | 315° |
| 2026-05-04 13:02 | 53.58218 | -3.46196 | 20121 ft | 338 kts | 307° |
| 2026-05-04 13:02 | 53.59576 | -3.49407 | 19695 ft | 336 kts | 306° |
| 2026-05-04 13:03 | 53.60923 | -3.52611 | 19275 ft | 335 kts | 306° |
| 2026-05-04 13:03 | 53.62265 | -3.55813 | 18850 ft | 334 kts | 305° |
| 2026-05-04 13:03 | 53.63604 | -3.59006 | 18421 ft | 333 kts | 305° |
| 2026-05-04 13:03 | 53.64941 | -3.62184 | 17981 ft | 332 kts | 305° |
| 2026-05-04 13:04 | 53.66270 | -3.65340 | 17562 ft | 329 kts | 305° |
| 2026-05-04 13:04 | 53.67588 | -3.68476 | 17161 ft | 326 kts | 305° |
| 2026-05-04 13:04 | 53.68895 | -3.71591 | 16747 ft | 324 kts | 305° |
| 2026-05-04 13:04 | 53.70190 | -3.74689 | 16362 ft | 322 kts | 305° |
| 2026-05-04 13:05 | 53.71471 | -3.77771 | 15982 ft | 320 kts | 304° |
| 2026-05-04 13:05 | 53.72314 | -3.79804 | 15715 ft | 319 kts | 304° |
| 2026-05-04 13:05 | 53.74010 | -3.83892 | 15206 ft | 317 kts | 304° |
| 2026-05-04 13:05 | 53.75272 | -3.86934 | 14816 ft | 315 kts | 304° |
| 2026-05-04 13:06 | 53.76103 | -3.88939 | 14565 ft | 314 kts | 304° |
| 2026-05-04 13:06 | 53.77357 | -3.91961 | 14178 ft | 313 kts | 304° |
| 2026-05-04 13:06 | 53.78604 | -3.94972 | 13779 ft | 312 kts | 304° |
| 2026-05-04 13:06 | 53.79846 | -3.97976 | 13378 ft | 310 kts | 304° |
| 2026-05-04 13:07 | 53.81076 | -4.00955 | 12987 ft | 308 kts | 304° |
| 2026-05-04 13:07 | 53.82298 | -4.03912 | 12581 ft | 306 kts | 304° |
| 2026-05-04 13:07 | 53.83505 | -4.06844 | 12107 ft | 300 kts | 304° |
| 2026-05-04 13:07 | 53.84660 | -4.09750 | 11652 ft | 296 kts | 301° |
| 2026-05-04 13:08 | 53.85695 | -4.12731 | 11203 ft | 292 kts | 300° |
| 2026-05-04 13:08 | 53.86709 | -4.15706 | 10763 ft | 291 kts | 300° |
| 2026-05-04 13:08 | 53.87721 | -4.18684 | 10318 ft | 290 kts | 300° |
| 2026-05-04 13:08 | 53.88719 | -4.21624 | 9875 ft | 286 kts | 300° |
| 2026-05-04 13:09 | 53.89705 | -4.24529 | 9394 ft | 283 kts | 300° |
| 2026-05-04 13:09 | 53.90681 | -4.27405 | 8919 ft | 280 kts | 300° |
| 2026-05-04 13:09 | 53.91648 | -4.30251 | 8450 ft | 277 kts | 299° |
| 2026-05-04 13:09 | 53.92607 | -4.33073 | 7978 ft | 275 kts | 299° |
| 2026-05-04 13:10 | 53.93559 | -4.35868 | 7532 ft | 273 kts | 299° |
| 2026-05-04 13:10 | 53.94505 | -4.38638 | 7085 ft | 271 kts | 299° |
| 2026-05-04 13:10 | 53.95446 | -4.41386 | 6642 ft | 268 kts | 300° |
| 2026-05-04 13:10 | 53.96383 | -4.44121 | 6177 ft | 266 kts | 299° |
| 2026-05-04 13:11 | 53.97303 | -4.46807 | 5726 ft | 259 kts | 300° |
| 2026-05-04 13:11 | 53.98188 | -4.49408 | 5333 ft | 250 kts | 299° |
| 2026-05-04 13:11 | 53.99042 | -4.51935 | 4952 ft | 242 kts | 300° |
| 2026-05-04 13:11 | 53.99880 | -4.54368 | 4565 ft | 235 kts | 300° |
| 2026-05-04 13:12 | 54.00685 | -4.56752 | 4178 ft | 231 kts | 300° |
| 2026-05-04 13:12 | 54.01463 | -4.59114 | 3792 ft | 227 kts | 300° |
| 2026-05-04 13:12 | 54.02028 | -4.61571 | 3402 ft | 223 kts | 278° |
| 2026-05-04 13:12 | 54.02074 | -4.64201 | 3027 ft | 224 kts | 270° |
| 2026-05-04 13:13 | 54.02031 | -4.66814 | 2913 ft | 212 kts | 269° |
| 2026-05-04 13:13 | 54.02002 | -4.69244 | 2854 ft | 201 kts | 275° |
| 2026-05-04 13:13 | 54.02520 | -4.71343 | 2686 ft | 191 kts | 313° |
| 2026-05-04 13:13 | 54.03572 | -4.72573 | 2578 ft | 179 kts | 331° |
| 2026-05-04 13:14 | 54.04677 | -4.73553 | 2235 ft | 181 kts | 333° |
| 2026-05-04 13:14 | 54.05821 | -4.74509 | 1755 ft | 185 kts | 339° |
| 2026-05-04 13:14 | 54.07034 | -4.74328 | 1449 ft | 175 kts | 31° |
| 2026-05-04 13:14 | 54.07630 | -4.72595 | 1287 ft | 177 kts | 82° |
| 2026-05-04 13:15 | 54.07568 | -4.70620 | 1037 ft | 157 kts | 91° |
| 2026-05-04 13:15 | 54.07570 | -4.68841 | 697 ft | 144 kts | 81° |
| 2026-05-04 13:15 | 54.07719 | -4.67245 | 517 ft | 130 kts | 73° |
| 2026-05-04 13:15 | 54.07903 | -4.65782 | 325 ft | 125 kts | 72° |
| 2026-05-04 13:16 | 54.08081 | -4.64352 | 174 ft | 123 kts | 73° |
| 2026-05-04 13:16 | 54.08260 | -4.62940 | 46 ft | 114 kts | 78° |
| 2026-05-04 13:16 | 54.08375 | -4.62011 | 41 ft | 57 kts | 78° |
| 2026-05-04 13:16 | 54.08430 | -4.61567 | 42 ft | 24 kts | 77° |
| 2026-05-04 13:17 | 54.08510 | -4.61439 | 43 ft | 16 kts | 332° |
| 2026-05-04 13:17 | 54.08539 | -4.61594 | 42 ft | 13 kts | 275° |
| 2026-05-04 13:17 | 54.08549 | -4.61756 | 42 ft | 14 kts | 277° |